sensor_id;sensor_type;location;lat;lon;timestamp;pressure;altitude;pressure_sealevel;temperature;humidity
54924;BME280;40825;52.270;20.984;2023-07-31T00:02:15;99926.27;;;19.06;76.95
54924;BME280;40825;52.270;20.984;2023-07-31T00:04:40;99924.31;;;19.01;77.05
54924;BME280;40825;52.270;20.984;2023-07-31T00:07:06;99919.52;;;18.96;77.22
54924;BME280;40825;52.270;20.984;2023-07-31T00:09:33;99923.65;;;18.93;76.69
54924;BME280;40825;52.270;20.984;2023-07-31T00:11:59;99922.54;;;18.90;77.45
54924;BME280;40825;52.270;20.984;2023-07-31T00:14:28;99925.50;;;18.87;77.37
54924;BME280;40825;52.270;20.984;2023-07-31T00:16:54;99927.85;;;18.84;77.42
54924;BME280;40825;52.270;20.984;2023-07-31T00:19:20;99929.38;;;18.79;77.83
54924;BME280;40825;52.270;20.984;2023-07-31T00:21:45;99930.09;;;18.75;77.99
54924;BME280;40825;52.270;20.984;2023-07-31T00:24:14;99926.28;;;18.71;78.22
54924;BME280;40825;52.270;20.984;2023-07-31T00:26:40;99930.73;;;18.66;78.78
54924;BME280;40825;52.270;20.984;2023-07-31T00:29:05;99930.91;;;18.62;78.88
54924;BME280;40825;52.270;20.984;2023-07-31T00:31:31;99923.89;;;18.58;78.69
54924;BME280;40825;52.270;20.984;2023-07-31T00:33:57;99922.84;;;18.55;78.24
54924;BME280;40825;52.270;20.984;2023-07-31T00:36:22;99927.12;;;18.56;78.76
54924;BME280;40825;52.270;20.984;2023-07-31T00:38:50;99925.10;;;18.54;79.81
54924;BME280;40825;52.270;20.984;2023-07-31T00:41:25;99925.84;;;18.51;79.35
54924;BME280;40825;52.270;20.984;2023-07-31T00:43:50;99924.14;;;18.50;79.36
54924;BME280;40825;52.270;20.984;2023-07-31T00:46:16;99922.71;;;18.48;79.11
54924;BME280;40825;52.270;20.984;2023-07-31T00:48:42;99918.86;;;18.47;78.93
54924;BME280;40825;52.270;20.984;2023-07-31T00:51:08;99917.04;;;18.47;79.24
54924;BME280;40825;52.270;20.984;2023-07-31T00:53:35;99916.17;;;18.47;78.97
54924;BME280;40825;52.270;20.984;2023-07-31T00:56:03;99914.28;;;18.46;79.30
54924;BME280;40825;52.270;20.984;2023-07-31T00:58:30;99910.11;;;18.44;79.45
54924;BME280;40825;52.270;20.984;2023-07-31T01:00:56;99905.70;;;18.42;79.79
54924;BME280;40825;52.270;20.984;2023-07-31T01:03:25;99905.26;;;18.42;79.27
54924;BME280;40825;52.270;20.984;2023-07-31T01:06:14;99906.64;;;18.40;79.32
54924;BME280;40825;52.270;20.984;2023-07-31T01:09:23;99911.77;;;18.38;79.17
54924;BME280;40825;52.270;20.984;2023-07-31T01:12:07;99918.24;;;18.36;79.71
54924;BME280;40825;52.270;20.984;2023-07-31T01:14:38;99918.00;;;18.34;79.92
54924;BME280;40825;52.270;20.984;2023-07-31T01:17:04;99918.78;;;18.31;79.89
54924;BME280;40825;52.270;20.984;2023-07-31T01:19:30;99918.47;;;18.27;80.29
54924;BME280;40825;52.270;20.984;2023-07-31T01:24:46;99919.39;;;18.22;81.34
54924;BME280;40825;52.270;20.984;2023-07-31T01:27:23;99918.70;;;18.19;81.13
54924;BME280;40825;52.270;20.984;2023-07-31T01:30:00;99916.80;;;18.18;81.42
54924;BME280;40825;52.270;20.984;2023-07-31T01:32:35;99918.14;;;18.16;80.87
54924;BME280;40825;52.270;20.984;2023-07-31T01:35:01;99921.35;;;18.14;81.08
54924;BME280;40825;52.270;20.984;2023-07-31T01:37:30;99923.08;;;18.13;80.19
54924;BME280;40825;52.270;20.984;2023-07-31T01:39:56;99928.17;;;18.14;80.64
54924;BME280;40825;52.270;20.984;2023-07-31T01:42:29;99929.11;;;18.11;81.57
54924;BME280;40825;52.270;20.984;2023-07-31T01:44:57;99926.89;;;18.07;81.72
54924;BME280;40825;52.270;20.984;2023-07-31T01:47:23;99926.20;;;18.04;82.13
54924;BME280;40825;52.270;20.984;2023-07-31T01:49:49;99927.07;;;18.02;82.11
54924;BME280;40825;52.270;20.984;2023-07-31T01:52:15;99929.91;;;17.99;82.25
54924;BME280;40825;52.270;20.984;2023-07-31T01:54:40;99925.69;;;17.98;81.81
54924;BME280;40825;52.270;20.984;2023-07-31T01:57:06;99925.44;;;17.95;81.72
54924;BME280;40825;52.270;20.984;2023-07-31T02:02:13;99931.52;;;17.89;83.38
54924;BME280;40825;52.270;20.984;2023-07-31T02:04:45;99937.31;;;17.86;82.65
54924;BME280;40825;52.270;20.984;2023-07-31T02:07:11;99934.36;;;17.83;83.54
54924;BME280;40825;52.270;20.984;2023-07-31T02:09:37;99928.88;;;17.79;84.00
54924;BME280;40825;52.270;20.984;2023-07-31T02:12:03;99926.17;;;17.76;83.17
54924;BME280;40825;52.270;20.984;2023-07-31T02:14:31;99934.24;;;17.74;83.39
54924;BME280;40825;52.270;20.984;2023-07-31T02:16:59;99939.95;;;17.71;83.36
54924;BME280;40825;52.270;20.984;2023-07-31T02:19:25;99941.42;;;17.69;84.00
54924;BME280;40825;52.270;20.984;2023-07-31T02:21:51;99939.64;;;17.65;84.09
54924;BME280;40825;52.270;20.984;2023-07-31T02:24:16;99945.27;;;17.62;84.89
54924;BME280;40825;52.270;20.984;2023-07-31T02:26:42;99949.83;;;17.59;84.52
54924;BME280;40825;52.270;20.984;2023-07-31T02:29:08;99948.67;;;17.58;84.67
54924;BME280;40825;52.270;20.984;2023-07-31T02:31:37;99943.14;;;17.55;84.72
54924;BME280;40825;52.270;20.984;2023-07-31T02:34:03;99948.50;;;17.53;84.42
54924;BME280;40825;52.270;20.984;2023-07-31T02:36:29;99950.03;;;17.51;85.09
54924;BME280;40825;52.270;20.984;2023-07-31T02:38:54;99951.73;;;17.48;85.64
54924;BME280;40825;52.270;20.984;2023-07-31T02:41:20;99953.83;;;17.45;86.80
54924;BME280;40825;52.270;20.984;2023-07-31T02:43:52;99959.36;;;17.43;87.18
54924;BME280;40825;52.270;20.984;2023-07-31T02:46:21;99964.64;;;17.42;86.60
54924;BME280;40825;52.270;20.984;2023-07-31T02:48:50;99961.61;;;17.41;86.44
54924;BME280;40825;52.270;20.984;2023-07-31T02:51:16;99956.02;;;17.41;86.95
54924;BME280;40825;52.270;20.984;2023-07-31T02:53:42;99951.30;;;17.41;86.36
54924;BME280;40825;52.270;20.984;2023-07-31T02:56:13;99951.52;;;17.41;86.54
54924;BME280;40825;52.270;20.984;2023-07-31T02:58:41;99944.79;;;17.43;86.03
54924;BME280;40825;52.270;20.984;2023-07-31T03:01:07;99947.52;;;17.45;85.88
54924;BME280;40825;52.270;20.984;2023-07-31T03:03:36;99956.13;;;17.46;85.73
54924;BME280;40825;52.270;20.984;2023-07-31T03:06:08;99959.81;;;17.47;86.69
54924;BME280;40825;52.270;20.984;2023-07-31T03:08:37;99955.81;;;17.47;86.13
54924;BME280;40825;52.270;20.984;2023-07-31T03:11:03;99956.10;;;17.49;86.15
54924;BME280;40825;52.270;20.984;2023-07-31T03:13:29;99953.81;;;17.51;85.69
54924;BME280;40825;52.270;20.984;2023-07-31T03:15:55;99955.60;;;17.52;85.70
54924;BME280;40825;52.270;20.984;2023-07-31T03:18:26;99956.36;;;17.52;86.15
54924;BME280;40825;52.270;20.984;2023-07-31T03:20:52;99958.36;;;17.53;85.57
54924;BME280;40825;52.270;20.984;2023-07-31T03:23:20;99960.09;;;17.53;85.58
54924;BME280;40825;52.270;20.984;2023-07-31T03:26:03;99957.63;;;17.54;85.10
54924;BME280;40825;52.270;20.984;2023-07-31T03:28:32;99956.86;;;17.56;84.94
54924;BME280;40825;52.270;20.984;2023-07-31T03:30:57;99959.33;;;17.60;85.03
54924;BME280;40825;52.270;20.984;2023-07-31T03:33:23;99965.90;;;17.62;85.57
54924;BME280;40825;52.270;20.984;2023-07-31T03:36:00;99968.02;;;17.64;86.13
54924;BME280;40825;52.270;20.984;2023-07-31T03:38:31;99969.44;;;17.65;85.55
54924;BME280;40825;52.270;20.984;2023-07-31T03:40:59;99973.95;;;17.67;85.28
54924;BME280;40825;52.270;20.984;2023-07-31T03:43:25;99973.59;;;17.69;85.04
54924;BME280;40825;52.270;20.984;2023-07-31T03:45:57;99975.31;;;17.68;85.47
54924;BME280;40825;52.270;20.984;2023-07-31T03:48:23;99977.96;;;17.69;85.11
54924;BME280;40825;52.270;20.984;2023-07-31T03:50:48;99977.99;;;17.70;85.15
54924;BME280;40825;52.270;20.984;2023-07-31T03:53:14;99982.67;;;17.73;85.00
54924;BME280;40825;52.270;20.984;2023-07-31T03:55:40;99985.19;;;17.75;85.22
54924;BME280;40825;52.270;20.984;2023-07-31T03:58:14;99986.26;;;17.75;85.46
54924;BME280;40825;52.270;20.984;2023-07-31T04:00:40;99985.44;;;17.75;85.33
54924;BME280;40825;52.270;20.984;2023-07-31T04:05:54;99991.55;;;17.75;85.51
54924;BME280;40825;52.270;20.984;2023-07-31T04:08:21;99999.17;;;17.76;85.09
54924;BME280;40825;52.270;20.984;2023-07-31T04:10:46;99999.34;;;17.76;84.99
54924;BME280;40825;52.270;20.984;2023-07-31T04:13:12;99999.23;;;17.75;85.30
54924;BME280;40825;52.270;20.984;2023-07-31T04:15:38;99999.16;;;17.75;85.08
54924;BME280;40825;52.270;20.984;2023-07-31T04:18:04;100003.41;;;17.74;84.90
54924;BME280;40825;52.270;20.984;2023-07-31T04:20:30;100004.21;;;17.73;85.23
54924;BME280;40825;52.270;20.984;2023-07-31T04:22:55;100008.05;;;17.73;85.28
54924;BME280;40825;52.270;20.984;2023-07-31T04:25:21;100012.04;;;17.73;85.62
54924;BME280;40825;52.270;20.984;2023-07-31T04:27:47;100012.73;;;17.72;85.13
54924;BME280;40825;52.270;20.984;2023-07-31T04:30:12;100011.65;;;17.72;85.12
54924;BME280;40825;52.270;20.984;2023-07-31T04:32:38;100009.83;;;17.73;85.27
54924;BME280;40825;52.270;20.984;2023-07-31T04:35:04;100012.86;;;17.73;84.97
54924;BME280;40825;52.270;20.984;2023-07-31T04:37:30;100014.26;;;17.73;85.08
54924;BME280;40825;52.270;20.984;2023-07-31T04:39:56;100015.70;;;17.76;84.50
54924;BME280;40825;52.270;20.984;2023-07-31T04:42:21;100018.44;;;17.79;84.75
54924;BME280;40825;52.270;20.984;2023-07-31T04:44:47;100022.05;;;17.82;84.20
54924;BME280;40825;52.270;20.984;2023-07-31T04:47:12;100021.32;;;17.84;84.00
54924;BME280;40825;52.270;20.984;2023-07-31T04:49:38;100023.56;;;17.86;84.14
54924;BME280;40825;52.270;20.984;2023-07-31T04:52:04;100021.54;;;17.87;84.21
54924;BME280;40825;52.270;20.984;2023-07-31T04:54:30;100021.28;;;17.89;84.20
54924;BME280;40825;52.270;20.984;2023-07-31T04:56:55;100018.31;;;17.90;84.48
54924;BME280;40825;52.270;20.984;2023-07-31T04:59:21;100018.64;;;17.90;84.09
54924;BME280;40825;52.270;20.984;2023-07-31T05:01:46;100019.98;;;17.93;84.19
54924;BME280;40825;52.270;20.984;2023-07-31T05:04:15;100021.09;;;17.96;83.92
54924;BME280;40825;52.270;20.984;2023-07-31T05:06:41;100020.48;;;17.98;83.69
54924;BME280;40825;52.270;20.984;2023-07-31T05:09:07;100022.34;;;17.99;83.67
54924;BME280;40825;52.270;20.984;2023-07-31T05:11:35;100026.75;;;18.02;83.27
54924;BME280;40825;52.270;20.984;2023-07-31T05:14:05;100028.27;;;18.03;83.17
54924;BME280;40825;52.270;20.984;2023-07-31T05:16:30;100032.09;;;18.05;83.43
54924;BME280;40825;52.270;20.984;2023-07-31T05:18:56;100033.80;;;18.07;83.49
54924;BME280;40825;52.270;20.984;2023-07-31T05:21:21;100034.48;;;18.09;83.34
54924;BME280;40825;52.270;20.984;2023-07-31T05:23:48;100033.73;;;18.10;83.03
54924;BME280;40825;52.270;20.984;2023-07-31T05:26:14;100034.70;;;18.10;83.41
54924;BME280;40825;52.270;20.984;2023-07-31T05:28:39;100034.55;;;18.14;83.48
54924;BME280;40825;52.270;20.984;2023-07-31T05:31:05;100037.70;;;18.20;83.34
54924;BME280;40825;52.270;20.984;2023-07-31T05:33:32;100037.05;;;18.23;82.93
54924;BME280;40825;52.270;20.984;2023-07-31T05:35:59;100038.80;;;18.26;82.94
54924;BME280;40825;52.270;20.984;2023-07-31T05:38:24;100038.27;;;18.31;82.81
54924;BME280;40825;52.270;20.984;2023-07-31T05:40:50;100043.93;;;18.34;82.51
54924;BME280;40825;52.270;20.984;2023-07-31T05:43:15;100049.04;;;18.35;82.28
54924;BME280;40825;52.270;20.984;2023-07-31T05:45:44;100052.44;;;18.36;82.49
54924;BME280;40825;52.270;20.984;2023-07-31T05:48:09;100050.95;;;18.38;82.09
54924;BME280;40825;52.270;20.984;2023-07-31T05:50:35;100051.83;;;18.36;81.95
54924;BME280;40825;52.270;20.984;2023-07-31T05:53:00;100053.00;;;18.34;82.16
54924;BME280;40825;52.270;20.984;2023-07-31T05:55:26;100052.50;;;18.37;81.95
54924;BME280;40825;52.270;20.984;2023-07-31T05:57:54;100057.14;;;18.37;81.64
54924;BME280;40825;52.270;20.984;2023-07-31T06:00:20;100060.39;;;18.37;81.43
54924;BME280;40825;52.270;20.984;2023-07-31T06:02:49;100065.96;;;18.36;81.47
54924;BME280;40825;52.270;20.984;2023-07-31T06:05:15;100069.67;;;18.41;81.44
54924;BME280;40825;52.270;20.984;2023-07-31T06:07:40;100069.65;;;18.47;81.54
54924;BME280;40825;52.270;20.984;2023-07-31T06:10:06;100071.88;;;18.53;81.78
54924;BME280;40825;52.270;20.984;2023-07-31T06:12:33;100073.06;;;18.61;81.64
54924;BME280;40825;52.270;20.984;2023-07-31T06:14:58;100074.80;;;18.64;80.84
54924;BME280;40825;52.270;20.984;2023-07-31T06:17:24;100083.04;;;18.60;80.63
54924;BME280;40825;52.270;20.984;2023-07-31T06:19:50;100080.81;;;18.59;80.86
54924;BME280;40825;52.270;20.984;2023-07-31T06:22:15;100078.73;;;18.60;80.68
54924;BME280;40825;52.270;20.984;2023-07-31T06:24:41;100084.17;;;18.64;80.89
54924;BME280;40825;52.270;20.984;2023-07-31T06:27:06;100082.02;;;18.66;80.65
54924;BME280;40825;52.270;20.984;2023-07-31T06:29:32;100077.86;;;18.66;80.83
54924;BME280;40825;52.270;20.984;2023-07-31T06:31:57;100078.73;;;18.66;80.85
54924;BME280;40825;52.270;20.984;2023-07-31T06:34:23;100079.48;;;18.65;80.84
54924;BME280;40825;52.270;20.984;2023-07-31T06:36:48;100078.84;;;18.61;80.96
54924;BME280;40825;52.270;20.984;2023-07-31T06:39:14;100079.32;;;18.56;82.04
54924;BME280;40825;52.270;20.984;2023-07-31T06:41:39;100081.45;;;18.49;81.71
54924;BME280;40825;52.270;20.984;2023-07-31T06:44:05;100082.93;;;18.46;82.09
54924;BME280;40825;52.270;20.984;2023-07-31T06:46:30;100083.90;;;18.41;82.62
54924;BME280;40825;52.270;20.984;2023-07-31T06:48:56;100084.42;;;18.36;83.14
54924;BME280;40825;52.270;20.984;2023-07-31T06:51:21;100086.55;;;18.33;83.11
54924;BME280;40825;52.270;20.984;2023-07-31T06:53:47;100092.45;;;18.33;82.90
54924;BME280;40825;52.270;20.984;2023-07-31T06:56:12;100090.34;;;18.33;83.33
54924;BME280;40825;52.270;20.984;2023-07-31T06:58:38;100090.78;;;18.34;82.72
54924;BME280;40825;52.270;20.984;2023-07-31T07:01:04;100090.46;;;18.38;82.45
54924;BME280;40825;52.270;20.984;2023-07-31T07:03:29;100085.73;;;18.41;82.12
54924;BME280;40825;52.270;20.984;2023-07-31T07:05:55;100089.34;;;18.40;82.52
54924;BME280;40825;52.270;20.984;2023-07-31T07:08:20;100090.21;;;18.40;82.87
54924;BME280;40825;52.270;20.984;2023-07-31T07:10:46;100084.96;;;18.44;82.16
54924;BME280;40825;52.270;20.984;2023-07-31T07:13:11;100089.35;;;18.50;81.78
54924;BME280;40825;52.270;20.984;2023-07-31T07:15:38;100093.11;;;18.67;81.34
54924;BME280;40825;52.270;20.984;2023-07-31T07:18:03;100091.46;;;18.93;80.93
54924;BME280;40825;52.270;20.984;2023-07-31T07:20:29;100089.90;;;19.26;80.22
54924;BME280;40825;52.270;20.984;2023-07-31T07:22:54;100088.95;;;19.56;79.99
54924;BME280;40825;52.270;20.984;2023-07-31T07:25:20;100092.54;;;19.84;78.58
54924;BME280;40825;52.270;20.984;2023-07-31T07:27:46;100095.59;;;20.12;79.02
54924;BME280;40825;52.270;20.984;2023-07-31T07:30:11;100090.42;;;20.54;77.49
54924;BME280;40825;52.270;20.984;2023-07-31T07:32:37;100082.54;;;21.03;77.37
54924;BME280;40825;52.270;20.984;2023-07-31T07:35:03;100076.44;;;21.33;73.74
54924;BME280;40825;52.270;20.984;2023-07-31T07:37:28;100080.02;;;21.59;73.41
54924;BME280;40825;52.270;20.984;2023-07-31T07:39:54;100078.16;;;21.87;72.02
54924;BME280;40825;52.270;20.984;2023-07-31T07:42:19;100080.36;;;21.99;72.42
54924;BME280;40825;52.270;20.984;2023-07-31T07:44:45;100074.76;;;22.16;71.09
54924;BME280;40825;52.270;20.984;2023-07-31T07:47:10;100073.58;;;22.26;68.91
54924;BME280;40825;52.270;20.984;2023-07-31T07:49:36;100075.41;;;22.45;70.31
54924;BME280;40825;52.270;20.984;2023-07-31T07:52:02;100074.73;;;22.55;68.54
54924;BME280;40825;52.270;20.984;2023-07-31T07:54:28;100075.77;;;22.65;68.38
54924;BME280;40825;52.270;20.984;2023-07-31T07:56:53;100077.67;;;22.76;70.81
54924;BME280;40825;52.270;20.984;2023-07-31T07:59:19;100089.40;;;22.81;67.70
54924;BME280;40825;52.270;20.984;2023-07-31T08:01:44;100086.04;;;22.70;63.78
54924;BME280;40825;52.270;20.984;2023-07-31T08:04:10;100084.65;;;22.66;63.49
54924;BME280;40825;52.270;20.984;2023-07-31T08:06:35;100085.33;;;22.80;64.75
54924;BME280;40825;52.270;20.984;2023-07-31T08:09:01;100084.79;;;22.80;63.78
54924;BME280;40825;52.270;20.984;2023-07-31T08:11:31;100083.07;;;22.85;64.19
54924;BME280;40825;52.270;20.984;2023-07-31T08:13:57;100082.79;;;22.95;64.33
54924;BME280;40825;52.270;20.984;2023-07-31T08:16:23;100075.70;;;23.03;64.21
54924;BME280;40825;52.270;20.984;2023-07-31T08:18:48;100071.67;;;23.04;63.22
54924;BME280;40825;52.270;20.984;2023-07-31T08:21:14;100073.77;;;23.09;62.78
54924;BME280;40825;52.270;20.984;2023-07-31T08:23:40;100074.95;;;23.17;62.50
54924;BME280;40825;52.270;20.984;2023-07-31T08:26:06;100075.20;;;23.20;60.03
54924;BME280;40825;52.270;20.984;2023-07-31T08:28:32;100077.93;;;23.21;60.74
54924;BME280;40825;52.270;20.984;2023-07-31T08:30:57;100080.72;;;23.29;60.53
54924;BME280;40825;52.270;20.984;2023-07-31T08:33:23;100080.41;;;23.60;59.57
54924;BME280;40825;52.270;20.984;2023-07-31T08:35:48;100084.30;;;24.14;57.16
54924;BME280;40825;52.270;20.984;2023-07-31T08:38:14;100079.65;;;24.64;55.99
54924;BME280;40825;52.270;20.984;2023-07-31T08:40:39;100079.02;;;25.13;57.12
54924;BME280;40825;52.270;20.984;2023-07-31T08:43:05;100075.91;;;25.46;55.40
54924;BME280;40825;52.270;20.984;2023-07-31T08:45:32;100075.11;;;25.59;52.83
54924;BME280;40825;52.270;20.984;2023-07-31T08:47:58;100072.64;;;25.67;52.47
54924;BME280;40825;52.270;20.984;2023-07-31T08:50:24;100075.55;;;25.87;53.21
54924;BME280;40825;52.270;20.984;2023-07-31T08:52:51;100078.02;;;26.19;49.83
54924;BME280;40825;52.270;20.984;2023-07-31T08:55:18;100078.70;;;26.52;48.31
54924;BME280;40825;52.270;20.984;2023-07-31T08:57:50;100080.69;;;26.78;47.86
54924;BME280;40825;52.270;20.984;2023-07-31T09:00:17;100080.73;;;27.12;48.29
54924;BME280;40825;52.270;20.984;2023-07-31T09:05:38;100078.88;;;27.34;48.15
54924;BME280;40825;52.270;20.984;2023-07-31T09:08:07;100082.92;;;27.48;45.99
54924;BME280;40825;52.270;20.984;2023-07-31T09:10:34;100085.25;;;27.53;44.99
54924;BME280;40825;52.270;20.984;2023-07-31T09:12:59;100081.04;;;27.58;45.80
54924;BME280;40825;52.270;20.984;2023-07-31T09:15:25;100091.32;;;27.82;45.77
54924;BME280;40825;52.270;20.984;2023-07-31T09:17:59;100088.48;;;27.88;44.14
54924;BME280;40825;52.270;20.984;2023-07-31T09:20:26;100086.20;;;27.85;43.86
54924;BME280;40825;52.270;20.984;2023-07-31T09:22:52;100084.50;;;27.85;44.98
54924;BME280;40825;52.270;20.984;2023-07-31T09:25:21;100083.99;;;27.69;44.68
54924;BME280;40825;52.270;20.984;2023-07-31T09:27:53;100080.65;;;27.58;44.67
54924;BME280;40825;52.270;20.984;2023-07-31T09:30:20;100079.46;;;27.64;44.60
54924;BME280;40825;52.270;20.984;2023-07-31T09:32:47;100078.38;;;27.76;44.43
54924;BME280;40825;52.270;20.984;2023-07-31T09:37:53;100084.95;;;27.61;44.22
54924;BME280;40825;52.270;20.984;2023-07-31T09:40:30;100083.92;;;27.11;44.52
54924;BME280;40825;52.270;20.984;2023-07-31T09:42:57;100084.01;;;26.52;44.69
54924;BME280;40825;52.270;20.984;2023-07-31T09:45:24;100084.63;;;26.41;45.14
54924;BME280;40825;52.270;20.984;2023-07-31T09:47:50;100082.87;;;26.44;44.65
54924;BME280;40825;52.270;20.984;2023-07-31T09:50:15;100078.85;;;26.24;44.88
54924;BME280;40825;52.270;20.984;2023-07-31T09:52:44;100082.95;;;26.43;44.69
54924;BME280;40825;52.270;20.984;2023-07-31T09:55:10;100082.68;;;26.27;44.97
54924;BME280;40825;52.270;20.984;2023-07-31T09:57:40;100083.98;;;25.96;45.28
54924;BME280;40825;52.270;20.984;2023-07-31T10:00:07;100080.00;;;25.89;45.34
54924;BME280;40825;52.270;20.984;2023-07-31T10:02:35;100079.08;;;26.00;44.83
54924;BME280;40825;52.270;20.984;2023-07-31T10:05:03;100078.91;;;26.20;45.23
54924;BME280;40825;52.270;20.984;2023-07-31T10:07:30;100082.53;;;26.42;44.66
54924;BME280;40825;52.270;20.984;2023-07-31T10:10:00;100075.73;;;26.41;43.15
54924;BME280;40825;52.270;20.984;2023-07-31T10:12:27;100069.75;;;26.36;43.84
54924;BME280;40825;52.270;20.984;2023-07-31T10:14:56;100070.80;;;26.41;44.41
54924;BME280;40825;52.270;20.984;2023-07-31T10:17:26;100072.23;;;26.48;43.94
54924;BME280;40825;52.270;20.984;2023-07-31T10:19:53;100075.05;;;26.57;43.53
54924;BME280;40825;52.270;20.984;2023-07-31T10:22:19;100073.79;;;26.67;41.55
54924;BME280;40825;52.270;20.984;2023-07-31T10:24:46;100073.62;;;26.79;41.86
54924;BME280;40825;52.270;20.984;2023-07-31T10:27:12;100078.11;;;26.90;41.53
54924;BME280;40825;52.270;20.984;2023-07-31T10:29:43;100071.54;;;26.79;41.90
54924;BME280;40825;52.270;20.984;2023-07-31T10:32:09;100067.54;;;26.54;41.50
54924;BME280;40825;52.270;20.984;2023-07-31T10:34:39;100070.38;;;26.35;42.33
54924;BME280;40825;52.270;20.984;2023-07-31T10:37:22;100067.77;;;26.17;41.90
54924;BME280;40825;52.270;20.984;2023-07-31T10:40:01;100065.30;;;26.02;42.01
54924;BME280;40825;52.270;20.984;2023-07-31T10:42:35;100070.98;;;25.88;41.69
54924;BME280;40825;52.270;20.984;2023-07-31T10:45:06;100071.80;;;25.80;42.31
54924;BME280;40825;52.270;20.984;2023-07-31T10:47:42;100074.08;;;25.81;42.43
54924;BME280;40825;52.270;20.984;2023-07-31T10:50:13;100072.66;;;25.71;41.88
54924;BME280;40825;52.270;20.984;2023-07-31T10:52:44;100070.88;;;25.64;42.03
54924;BME280;40825;52.270;20.984;2023-07-31T10:55:24;100073.89;;;25.64;42.10
54924;BME280;40825;52.270;20.984;2023-07-31T10:57:50;100072.12;;;25.56;41.92
54924;BME280;40825;52.270;20.984;2023-07-31T11:00:29;100072.94;;;25.60;42.42
54924;BME280;40825;52.270;20.984;2023-07-31T11:03:05;100068.77;;;25.63;42.49
54924;BME280;40825;52.270;20.984;2023-07-31T11:06:00;100067.67;;;25.36;41.16
54924;BME280;40825;52.270;20.984;2023-07-31T11:08:29;100066.02;;;25.16;41.53
54924;BME280;40825;52.270;20.984;2023-07-31T11:13:26;100070.20;;;25.20;41.82
54924;BME280;40825;52.270;20.984;2023-07-31T11:15:51;100065.13;;;25.25;42.36
54924;BME280;40825;52.270;20.984;2023-07-31T11:18:17;100057.70;;;25.23;41.97
54924;BME280;40825;52.270;20.984;2023-07-31T11:20:44;100059.83;;;25.20;41.93
54924;BME280;40825;52.270;20.984;2023-07-31T11:23:10;100058.52;;;25.15;41.78
54924;BME280;40825;52.270;20.984;2023-07-31T11:25:37;100062.21;;;24.94;41.86
54924;BME280;40825;52.270;20.984;2023-07-31T11:28:06;100063.17;;;24.89;42.94
54924;BME280;40825;52.270;20.984;2023-07-31T11:30:33;100062.50;;;24.82;42.66
54924;BME280;40825;52.270;20.984;2023-07-31T11:33:01;100060.45;;;24.81;42.42
54924;BME280;40825;52.270;20.984;2023-07-31T11:35:30;100061.82;;;24.78;42.69
54924;BME280;40825;52.270;20.984;2023-07-31T11:37:55;100062.84;;;24.67;42.21
54924;BME280;40825;52.270;20.984;2023-07-31T11:40:21;100062.56;;;24.64;42.72
54924;BME280;40825;52.270;20.984;2023-07-31T11:42:46;100060.73;;;24.54;42.47
54924;BME280;40825;52.270;20.984;2023-07-31T11:45:12;100059.88;;;24.49;43.36
54924;BME280;40825;52.270;20.984;2023-07-31T11:47:37;100057.02;;;24.50;42.97
54924;BME280;40825;52.270;20.984;2023-07-31T11:50:05;100051.73;;;24.50;43.28
54924;BME280;40825;52.270;20.984;2023-07-31T11:52:35;100053.31;;;24.50;42.93
54924;BME280;40825;52.270;20.984;2023-07-31T11:55:03;100055.04;;;24.43;42.64
54924;BME280;40825;52.270;20.984;2023-07-31T11:57:30;100053.89;;;24.34;43.03
54924;BME280;40825;52.270;20.984;2023-07-31T11:59:56;100048.54;;;24.31;43.43
54924;BME280;40825;52.270;20.984;2023-07-31T12:02:23;100049.68;;;24.31;43.39
54924;BME280;40825;52.270;20.984;2023-07-31T12:04:49;100049.02;;;24.31;43.43
54924;BME280;40825;52.270;20.984;2023-07-31T12:07:14;100048.75;;;24.31;43.57
54924;BME280;40825;52.270;20.984;2023-07-31T12:09:53;100047.44;;;24.32;43.62
54924;BME280;40825;52.270;20.984;2023-07-31T12:12:20;100046.35;;;24.31;43.84
54924;BME280;40825;52.270;20.984;2023-07-31T12:14:46;100042.92;;;24.31;43.71
54924;BME280;40825;52.270;20.984;2023-07-31T12:17:12;100041.17;;;24.27;43.70
54924;BME280;40825;52.270;20.984;2023-07-31T12:19:37;100044.08;;;24.21;44.13
54924;BME280;40825;52.270;20.984;2023-07-31T12:22:11;100044.02;;;24.21;44.42
54924;BME280;40825;52.270;20.984;2023-07-31T12:24:36;100038.83;;;24.22;44.90
54924;BME280;40825;52.270;20.984;2023-07-31T12:27:09;100035.21;;;24.23;44.52
54924;BME280;40825;52.270;20.984;2023-07-31T12:29:35;100033.67;;;24.15;44.40
54924;BME280;40825;52.270;20.984;2023-07-31T12:32:01;100032.88;;;24.09;44.48
54924;BME280;40825;52.270;20.984;2023-07-31T12:34:27;100028.38;;;24.03;44.44
54924;BME280;40825;52.270;20.984;2023-07-31T12:36:53;100031.38;;;24.06;44.88
54924;BME280;40825;52.270;20.984;2023-07-31T12:39:19;100025.72;;;24.07;45.08
54924;BME280;40825;52.270;20.984;2023-07-31T12:41:44;100020.30;;;24.07;45.29
54924;BME280;40825;52.270;20.984;2023-07-31T12:44:10;100015.67;;;24.10;45.43
54924;BME280;40825;52.270;20.984;2023-07-31T12:46:35;100010.77;;;24.10;45.55
54924;BME280;40825;52.270;20.984;2023-07-31T12:49:02;100009.98;;;24.08;45.33
54924;BME280;40825;52.270;20.984;2023-07-31T12:51:27;100012.59;;;24.01;45.40
54924;BME280;40825;52.270;20.984;2023-07-31T12:53:53;100007.48;;;23.92;45.41
54924;BME280;40825;52.270;20.984;2023-07-31T12:56:18;100005.70;;;23.84;45.23
54924;BME280;40825;52.270;20.984;2023-07-31T12:58:44;100000.61;;;23.82;45.23
54924;BME280;40825;52.270;20.984;2023-07-31T13:01:09;99994.92;;;23.88;45.45